createdAt,value
2022-10-16T00:00:51.757Z,6.07
2022-10-16T00:03:19.333Z,5.55
2022-10-16T00:05:47.462Z,5.25
2022-10-16T00:08:15.257Z,5.53
2022-10-16T00:10:44.227Z,5.20
2022-10-16T00:13:12.133Z,5.60
2022-10-16T00:15:40.097Z,5.22
2022-10-16T00:18:08.510Z,4.35
2022-10-16T00:20:37.757Z,4.75
2022-10-16T00:23:06.197Z,5.05
2022-10-16T00:25:34.615Z,4.30
2022-10-16T00:28:03.815Z,4.32
2022-10-16T00:30:31.391Z,3.30
2022-10-16T00:32:59.017Z,4.65
2022-10-16T00:35:26.682Z,2.83
2022-10-16T00:37:54.406Z,3.28
2022-10-16T00:40:22.032Z,3.85
2022-10-16T00:42:51.183Z,3.60
2022-10-16T00:45:22.692Z,2.67
2022-10-16T00:47:52.524Z,3.00
2022-10-16T00:50:26.122Z,2.40
2022-10-16T00:52:55.189Z,2.85
2022-10-16T00:55:25.487Z,2.70
2022-10-16T00:57:54.134Z,2.78
2022-10-16T01:00:25.455Z,2.45
2022-10-16T01:02:57.459Z,2.45
2022-10-16T01:05:29.718Z,3.03
2022-10-16T01:08:06.839Z,2.63
2022-10-16T01:10:40.192Z,2.70
2022-10-16T01:13:10.800Z,2.60
2022-10-16T01:15:44.400Z,2.45
2022-10-16T01:18:17.963Z,2.33
2022-10-16T01:20:48.929Z,2.33
2022-10-16T01:23:34.428Z,2.10
2022-10-16T01:26:26.841Z,2.20
2022-10-16T01:28:59.725Z,1.83
2022-10-16T01:31:31.045Z,2.42
2022-10-16T01:34:04.872Z,2.10
2022-10-16T01:36:38.567Z,2.50
2022-10-16T01:39:10.038Z,2.33
2022-10-16T01:41:42.421Z,2.50
2022-10-16T01:44:14.086Z,2.55
2022-10-16T01:46:44.895Z,2.30
2022-10-16T01:49:14.313Z,2.25
2022-10-16T01:51:44.592Z,2.42
2022-10-16T01:54:14.455Z,2.10
2022-10-16T01:56:43.028Z,2.30
2022-10-16T01:59:16.360Z,2.45
2022-10-16T02:01:48.248Z,2.10
2022-10-16T02:04:19.347Z,2.60
2022-10-16T02:06:47.192Z,2.30
2022-10-16T02:09:16.692Z,3.70
2022-10-16T02:11:44.759Z,2.65
2022-10-16T02:14:14.159Z,2.53
2022-10-16T02:16:44.423Z,2.55
2022-10-16T02:19:14.306Z,2.85
2022-10-16T02:21:46.519Z,1.95
2022-10-16T02:24:24.175Z,3.00
2022-10-16T02:26:56.630Z,2.72
2022-10-16T02:29:28.119Z,2.35
2022-10-16T02:32:00.463Z,2.22
2022-10-16T02:34:29.444Z,2.17
2022-10-16T02:36:59.235Z,2.75
2022-10-16T02:39:29.075Z,2.42
2022-10-16T02:41:56.673Z,2.13
2022-10-16T02:44:25.589Z,2.45
2022-10-16T02:46:53.404Z,2.28
2022-10-16T02:49:21.081Z,2.17
2022-10-16T02:51:48.676Z,2.40
2022-10-16T02:54:16.372Z,2.00
2022-10-16T02:56:44.065Z,1.90
2022-10-16T02:59:11.705Z,1.92
2022-10-16T03:01:40.746Z,1.80
2022-10-16T03:04:08.511Z,2.08
2022-10-16T03:06:38.389Z,1.90
2022-10-16T03:09:05.928Z,2.05
2022-10-16T03:11:33.526Z,2.40
2022-10-16T03:14:01.189Z,2.00
2022-10-16T03:16:28.771Z,2.08
2022-10-16T03:18:57.704Z,2.13
2022-10-16T03:21:25.778Z,1.60
2022-10-16T03:23:53.398Z,1.73
2022-10-16T03:26:20.994Z,1.75
2022-10-16T03:28:48.616Z,1.65
2022-10-16T03:31:16.261Z,1.70
2022-10-16T03:33:43.989Z,1.58
2022-10-16T03:36:12.931Z,1.70
2022-10-16T03:38:40.556Z,2.10
2022-10-16T03:41:08.689Z,1.77
2022-10-16T03:43:36.867Z,1.65
2022-10-16T03:46:04.599Z,1.90
2022-10-16T03:48:33.091Z,1.80
2022-10-16T03:51:00.641Z,1.70
2022-10-16T03:53:29.753Z,1.58
2022-10-16T03:55:57.313Z,2.22
2022-10-16T03:58:25.117Z,1.67
2022-10-16T04:00:53.335Z,1.73
2022-10-16T04:03:23.386Z,1.70
2022-10-16T04:05:51.393Z,1.48
2022-10-16T04:08:19.319Z,1.98
2022-10-16T04:10:48.262Z,1.83
2022-10-16T04:13:16.342Z,1.80
2022-10-16T04:15:44.362Z,1.75
2022-10-16T04:18:12.905Z,1.63
2022-10-16T04:20:40.827Z,1.95
2022-10-16T04:23:08.443Z,1.92
2022-10-16T04:25:36.060Z,1.75
2022-10-16T04:28:05.179Z,1.92
2022-10-16T04:30:34.447Z,1.70
2022-10-16T04:33:02.197Z,1.77
2022-10-16T04:35:29.750Z,1.90
2022-10-16T04:37:59.320Z,1.75
2022-10-16T04:40:26.920Z,2.03
2022-10-16T04:42:54.631Z,1.95
2022-10-16T04:45:23.550Z,2.15
2022-10-16T04:47:51.283Z,1.98
2022-10-16T04:50:18.890Z,1.75
2022-10-16T04:53:02.600Z,1.75
2022-10-16T04:55:30.550Z,2.15
2022-10-16T04:57:58.114Z,2.42
2022-10-16T05:00:27.263Z,2.47
2022-10-16T05:02:54.863Z,2.53
2022-10-16T05:05:22.652Z,2.10
2022-10-16T05:07:50.529Z,2.22
2022-10-16T05:10:18.566Z,2.53
2022-10-16T05:12:46.522Z,2.42
2022-10-16T05:15:14.383Z,2.60
2022-10-16T05:17:44.762Z,2.28
2022-10-16T05:20:12.966Z,2.78
2022-10-16T05:22:40.595Z,3.22
2022-10-16T05:25:08.770Z,2.13
2022-10-16T05:27:36.833Z,2.90
2022-10-16T05:30:07.419Z,2.90
2022-10-16T05:32:37.571Z,2.42
2022-10-16T05:35:10.141Z,2.67
2022-10-16T05:37:40.205Z,2.45
2022-10-16T05:40:09.186Z,2.40
2022-10-16T05:42:36.723Z,3.58
2022-10-16T05:45:04.820Z,2.13
2022-10-16T05:47:32.402Z,2.20
2022-10-16T05:49:59.956Z,2.40
2022-10-16T05:52:29.900Z,2.00
2022-10-16T05:54:57.580Z,1.80
2022-10-16T05:57:25.560Z,2.10
2022-10-16T05:59:53.724Z,2.05
2022-10-16T06:02:21.306Z,1.70
2022-10-16T06:04:48.866Z,2.60
2022-10-16T06:07:16.463Z,2.15
2022-10-16T06:09:45.608Z,2.75
2022-10-16T06:12:13.188Z,1.88
2022-10-16T06:14:40.917Z,1.63
2022-10-16T06:17:08.533Z,2.42
2022-10-16T06:19:36.062Z,2.08
2022-10-16T06:22:05.261Z,1.90
2022-10-16T06:24:32.826Z,2.00
2022-10-16T06:27:02.499Z,2.20
2022-10-16T06:29:30.056Z,1.70
2022-10-16T06:31:57.654Z,2.00
2022-10-16T06:34:25.464Z,2.10
2022-10-16T06:36:53.060Z,1.98
2022-10-16T06:39:20.627Z,1.90
2022-10-16T06:41:48.293Z,2.28
2022-10-16T06:44:20.400Z,1.98
2022-10-16T06:46:48.024Z,2.30
2022-10-16T06:49:22.056Z,2.00
2022-10-16T06:51:49.758Z,2.10
2022-10-16T06:54:18.779Z,1.80
2022-10-16T06:56:46.837Z,2.42
2022-10-16T06:59:14.356Z,4.32
2022-10-16T07:01:43.421Z,2.55
2022-10-16T07:04:11.011Z,2.65
2022-10-16T07:06:38.574Z,2.42
2022-10-16T07:09:07.632Z,2.50
2022-10-16T07:11:35.689Z,2.42
2022-10-16T07:14:03.471Z,3.00
2022-10-16T07:16:32.858Z,2.60
2022-10-16T07:19:03.169Z,3.08
2022-10-16T07:21:32.420Z,3.58
2022-10-16T07:24:02.217Z,3.10
2022-10-16T07:26:32.076Z,2.20
2022-10-16T07:29:00.237Z,2.92
2022-10-16T07:31:28.301Z,8.05
2022-10-16T07:33:56.401Z,4.28
2022-10-16T07:36:25.255Z,7.90
2022-10-16T07:38:55.528Z,4.20
2022-10-16T07:41:26.750Z,6.07
2022-10-16T07:43:55.739Z,5.35
2022-10-16T07:46:24.820Z,3.88
2022-10-16T07:48:52.476Z,4.45
2022-10-16T07:51:21.747Z,3.38
2022-10-16T07:53:53.601Z,8.60
2022-10-16T07:56:22.679Z,4.07
2022-10-16T07:58:51.300Z,4.65
2022-10-16T08:01:20.123Z,3.33
2022-10-16T08:03:50.941Z,3.30
2022-10-16T08:06:21.991Z,5.60
2022-10-16T08:08:54.333Z,4.25
2022-10-16T08:11:21.938Z,3.40
2022-10-16T08:13:49.542Z,3.65
2022-10-16T08:16:18.182Z,4.47
2022-10-16T08:18:45.829Z,3.33
2022-10-16T08:21:20.156Z,6.55
2022-10-16T08:23:53.027Z,5.40
2022-10-16T08:26:28.423Z,4.15
2022-10-16T08:28:57.057Z,6.57
2022-10-16T08:31:25.335Z,7.45
2022-10-16T08:33:53.539Z,3.72
2022-10-16T08:36:21.399Z,4.22
2022-10-16T08:38:51.237Z,3.47
2022-10-16T08:41:40.287Z,6.80
2022-10-16T08:44:30.029Z,4.05
2022-10-16T08:47:05.102Z,3.97
2022-10-16T08:49:33.319Z,3.92
2022-10-16T08:52:01.828Z,3.38
2022-10-16T08:54:34.836Z,2.33
2022-10-16T08:57:11.713Z,5.78
2022-10-16T08:59:39.388Z,4.03
2022-10-16T09:02:25.679Z,2.83
2022-10-16T09:05:12.109Z,4.05
2022-10-16T09:07:49.873Z,2.60
2022-10-16T09:10:31.090Z,3.42
2022-10-16T09:13:08.990Z,2.53
2022-10-16T09:15:43.447Z,3.33
2022-10-16T09:18:17.337Z,4.72
2022-10-16T09:20:51.980Z,3.25
2022-10-16T09:23:21.841Z,3.63
2022-10-16T09:25:51.103Z,3.17
2022-10-16T09:28:21.132Z,2.70
2022-10-16T09:30:50.683Z,2.53
2022-10-16T09:33:21.081Z,3.92
2022-10-16T09:35:51.824Z,2.90
2022-10-16T09:38:27.269Z,3.00
2022-10-16T09:40:59.323Z,2.10
2022-10-16T09:43:37.248Z,2.83
2022-10-16T09:46:07.461Z,2.10
2022-10-16T09:48:39.258Z,4.55
2022-10-16T09:51:18.002Z,2.53
2022-10-16T09:53:47.179Z,3.33
2022-10-16T09:56:25.660Z,1.70
2022-10-16T09:58:55.984Z,3.10
2022-10-16T10:01:27.373Z,2.60
2022-10-16T10:04:01.970Z,2.33
2022-10-16T10:06:33.138Z,2.13
2022-10-16T10:09:05.786Z,4.85
2022-10-16T10:11:42.516Z,2.22
2022-10-16T10:14:19.453Z,1.63
2022-10-16T10:16:47.582Z,1.38
2022-10-16T10:19:17.212Z,1.77
2022-10-16T10:21:45.198Z,1.33
2022-10-16T10:24:14.905Z,1.52
2022-10-16T10:26:51.238Z,1.52
2022-10-16T10:29:30.610Z,1.80
2022-10-16T10:32:09.411Z,1.85
2022-10-16T10:34:52.858Z,1.55
2022-10-16T10:37:36.297Z,1.80
2022-10-16T10:40:13.474Z,1.48
2022-10-16T10:42:50.235Z,1.90
2022-10-16T10:45:28.553Z,1.20
2022-10-16T10:48:07.170Z,1.45
2022-10-16T10:50:43.338Z,1.52
2022-10-16T10:53:31.026Z,1.65
2022-10-16T10:56:07.208Z,1.48
2022-10-16T10:59:02.836Z,1.88
2022-10-16T11:01:43.148Z,1.10
2022-10-16T11:04:38.549Z,1.52
2022-10-16T11:07:07.900Z,1.10
2022-10-16T11:09:40.409Z,0.95
2022-10-16T11:12:14.463Z,1.20
2022-10-16T11:14:48.194Z,1.55
2022-10-16T11:17:22.322Z,1.85
2022-10-16T11:19:54.314Z,1.35
2022-10-16T11:22:26.848Z,1.25
2022-10-16T11:25:01.310Z,1.50
2022-10-16T11:27:38.022Z,0.95
2022-10-16T11:30:14.381Z,0.98
2022-10-16T11:32:54.433Z,1.48
2022-10-16T11:35:26.918Z,1.20
2022-10-16T11:37:59.098Z,1.33
2022-10-16T11:40:34.347Z,1.30
2022-10-16T11:43:12.551Z,1.15
2022-10-16T11:45:44.340Z,1.30
2022-10-16T11:48:25.024Z,1.17
2022-10-16T11:50:55.921Z,1.20
2022-10-16T11:53:33.767Z,0.95
2022-10-16T11:56:01.905Z,0.93
2022-10-16T11:58:35.468Z,0.98
2022-10-16T12:01:16.874Z,1.77
2022-10-16T12:03:51.675Z,1.40
2022-10-16T12:06:35.825Z,1.30
2022-10-16T12:09:04.081Z,0.98
2022-10-16T12:11:39.051Z,1.25
2022-10-16T12:14:20.191Z,2.05
2022-10-16T12:16:57.168Z,1.77
2022-10-16T12:19:28.084Z,1.90
2022-10-16T12:21:58.666Z,1.17
2022-10-16T12:24:38.902Z,1.25
2022-10-16T12:27:08.780Z,2.03
2022-10-16T12:29:39.763Z,1.23
2022-10-16T12:32:46.671Z,2.40
2022-10-16T12:35:23.075Z,1.92
2022-10-16T12:37:51.653Z,2.30
2022-10-16T12:40:29.049Z,2.45
2022-10-16T12:42:56.936Z,1.48
2022-10-16T12:45:31.937Z,1.70
2022-10-16T12:48:00.853Z,1.63
2022-10-16T12:50:33.932Z,1.90
2022-10-16T12:53:02.312Z,1.83
2022-10-16T12:55:36.932Z,2.15
2022-10-16T12:58:33.449Z,2.05
2022-10-16T13:01:10.403Z,2.10
2022-10-16T13:04:07.104Z,2.00
2022-10-16T13:06:41.592Z,2.78
2022-10-16T13:09:30.168Z,2.70
2022-10-16T13:12:09.024Z,3.63
2022-10-16T13:14:56.974Z,3.25
2022-10-16T13:17:32.460Z,2.60
2022-10-16T13:20:08.774Z,1.45
2022-10-16T13:22:43.102Z,1.33
2022-10-16T13:25:24.541Z,1.60
2022-10-16T13:27:57.016Z,0.93
2022-10-16T13:30:30.570Z,2.00
2022-10-16T13:33:02.208Z,2.20
2022-10-16T13:35:31.568Z,2.20
2022-10-16T13:38:13.240Z,1.98
2022-10-16T13:40:51.270Z,2.28
2022-10-16T13:43:20.697Z,4.05
2022-10-16T13:45:56.422Z,2.80
2022-10-16T13:48:24.327Z,1.63
2022-10-16T13:51:03.037Z,2.65
2022-10-16T13:53:34.137Z,2.63
2022-10-16T13:56:02.231Z,2.67
2022-10-16T13:58:30.610Z,1.85
2022-10-16T14:01:00.299Z,1.83
2022-10-16T14:03:29.457Z,1.60
2022-10-16T14:05:59.795Z,1.40
2022-10-16T14:08:28.948Z,1.88
2022-10-16T14:11:00.722Z,1.35
2022-10-16T14:13:34.172Z,1.20
2022-10-16T14:16:07.703Z,1.83
2022-10-16T14:18:36.401Z,1.17
2022-10-16T14:21:08.647Z,1.60
2022-10-16T14:23:39.529Z,1.25
2022-10-16T14:26:20.946Z,1.30
2022-10-16T14:28:50.190Z,1.70
2022-10-16T14:31:28.926Z,0.98
2022-10-16T14:33:57.163Z,1.33
2022-10-16T14:36:26.826Z,1.13
2022-10-16T14:39:04.346Z,1.35
2022-10-16T14:41:42.550Z,1.27
2022-10-16T14:44:13.352Z,1.20
2022-10-16T14:46:43.664Z,1.20
2022-10-16T14:49:18.855Z,1.70
2022-10-16T14:51:46.861Z,1.70
2022-10-16T14:54:15.692Z,1.20
2022-10-16T14:56:49.735Z,1.45
2022-10-16T14:59:21.010Z,1.27
2022-10-16T15:01:49.068Z,1.38
2022-10-16T15:04:17.368Z,2.30
2022-10-16T15:06:45.225Z,1.20
2022-10-16T15:09:13.217Z,1.20
2022-10-16T15:11:41.102Z,1.02
2022-10-16T15:16:44.297Z,1.25
2022-10-16T15:19:12.284Z,2.30
2022-10-16T15:21:40.512Z,1.45
2022-10-16T15:24:16.427Z,1.13
2022-10-16T15:26:47.900Z,1.65
2022-10-16T15:29:17.388Z,1.70
2022-10-16T15:31:45.747Z,1.20
2022-10-16T15:34:14.161Z,1.73
2022-10-16T15:37:07.975Z,2.13
2022-10-16T15:39:40.470Z,3.58
2022-10-16T15:42:09.258Z,2.55
2022-10-16T15:44:38.314Z,3.83
2022-10-16T15:47:06.077Z,2.55
2022-10-16T15:49:33.846Z,3.60
2022-10-16T15:52:01.758Z,2.80
2022-10-16T15:54:29.523Z,1.80
2022-10-16T15:56:57.548Z,2.05
2022-10-16T15:59:25.386Z,1.85
2022-10-16T16:01:54.592Z,1.70
2022-10-16T16:07:10.412Z,1.88
2022-10-16T16:09:38.729Z,1.38
2022-10-16T16:12:06.492Z,1.83
2022-10-16T16:14:34.280Z,2.33
2022-10-16T16:17:04.279Z,2.20
2022-10-16T16:19:32.809Z,4.57
2022-10-16T16:22:01.102Z,2.90
2022-10-16T16:24:28.824Z,4.63
2022-10-16T16:26:56.741Z,5.93
2022-10-16T16:29:24.752Z,6.10
2022-10-16T16:31:57.977Z,4.10
2022-10-16T16:34:27.506Z,4.60
2022-10-16T16:36:55.913Z,4.30
2022-10-16T16:39:24.475Z,2.85
2022-10-16T16:41:52.458Z,2.60
2022-10-16T16:44:20.392Z,2.10
2022-10-16T16:46:48.441Z,2.10
2022-10-16T16:49:16.709Z,3.33
2022-10-16T16:51:46.055Z,3.75
2022-10-16T16:54:14.884Z,1.90
2022-10-16T16:56:44.098Z,2.45
2022-10-16T16:59:16.701Z,3.05
2022-10-16T17:01:44.565Z,3.60
2022-10-16T17:04:13.152Z,3.78
2022-10-16T17:06:41.416Z,2.63
2022-10-16T17:09:13.985Z,2.72
2022-10-16T17:11:44.068Z,2.22
2022-10-16T17:14:12.515Z,2.50
2022-10-16T17:16:44.802Z,2.65
2022-10-16T17:19:15.718Z,3.50
2022-10-16T17:21:45.539Z,4.32
2022-10-16T17:24:15.031Z,4.25
2022-10-16T17:26:48.816Z,5.40
2022-10-16T17:29:18.241Z,4.60
2022-10-16T17:31:46.512Z,4.72
2022-10-16T17:34:14.614Z,4.43
2022-10-16T17:36:47.319Z,5.28
2022-10-16T17:39:19.261Z,5.63
2022-10-16T17:41:47.838Z,5.28
2022-10-16T17:44:20.111Z,5.80
2022-10-16T17:46:49.083Z,5.15
2022-10-16T17:49:17.269Z,5.47
2022-10-16T17:51:46.470Z,5.13
2022-10-16T17:54:15.465Z,5.63
2022-10-16T17:56:45.177Z,5.95
2022-10-16T17:59:13.764Z,5.30
2022-10-16T18:01:45.508Z,4.93
2022-10-16T18:04:15.323Z,4.03
2022-10-16T18:06:45.177Z,4.30
2022-10-16T18:09:15.474Z,3.83
2022-10-16T18:11:45.662Z,3.65
2022-10-16T18:14:15.817Z,3.20
2022-10-16T18:16:44.621Z,3.55
2022-10-16T18:19:13.147Z,3.40
2022-10-16T18:21:41.482Z,3.50
2022-10-16T18:24:10.763Z,5.18
2022-10-16T18:26:38.732Z,4.70
2022-10-16T18:29:08.570Z,4.85
2022-10-16T18:31:39.095Z,5.03
2022-10-16T18:34:09.997Z,4.55
2022-10-16T18:36:39.757Z,4.38
2022-10-16T18:39:10.309Z,5.13
2022-10-16T18:41:39.669Z,5.28
2022-10-16T18:44:11.527Z,4.80
2022-10-16T18:46:46.926Z,5.00
2022-10-16T18:49:15.295Z,4.88
2022-10-16T18:51:44.241Z,5.22
2022-10-16T18:54:14.278Z,5.47
2022-10-16T18:56:43.058Z,5.22
2022-10-16T18:59:12.362Z,5.68
2022-10-16T19:01:42.612Z,4.72
2022-10-16T19:04:13.088Z,4.43
2022-10-16T19:06:44.165Z,5.18
2022-10-16T19:09:16.348Z,4.40
2022-10-16T19:11:45.045Z,4.60
2022-10-16T19:14:16.555Z,4.57
2022-10-16T19:16:44.739Z,5.05
2022-10-16T19:19:15.470Z,4.65
2022-10-16T19:21:43.801Z,4.45
2022-10-16T19:24:13.987Z,4.82
2022-10-16T19:26:42.492Z,5.00
2022-10-16T19:29:11.101Z,5.18
2022-10-16T19:31:41.118Z,5.45
2022-10-16T19:34:09.903Z,5.45
2022-10-16T19:36:40.063Z,5.32
2022-10-16T19:39:14.708Z,5.78
2022-10-16T19:41:43.017Z,6.18
2022-10-16T19:44:13.614Z,6.47
2022-10-16T19:46:46.599Z,6.28
2022-10-16T19:49:16.988Z,6.13
2022-10-16T19:51:48.841Z,6.05
2022-10-16T19:54:17.537Z,6.55
2022-10-16T19:56:45.331Z,6.38
2022-10-16T19:59:17.295Z,5.55
2022-10-16T20:01:47.253Z,6.75
2022-10-16T20:04:17.685Z,6.60
2022-10-16T20:06:46.311Z,6.45
2022-10-16T20:09:14.688Z,5.80
2022-10-16T20:11:42.769Z,5.82
2022-10-16T20:14:10.790Z,6.05
2022-10-16T20:16:40.362Z,6.57
2022-10-16T20:19:10.002Z,5.88
2022-10-16T20:21:39.186Z,5.85
2022-10-16T20:24:08.611Z,6.07
2022-10-16T20:26:40.402Z,7.05
2022-10-16T20:29:08.333Z,7.18
2022-10-16T20:31:39.785Z,7.72
2022-10-16T20:34:13.206Z,6.90
2022-10-16T20:36:43.350Z,6.15
2022-10-16T20:39:13.808Z,6.75
2022-10-16T20:41:45.493Z,6.75
2022-10-16T20:44:13.430Z,6.47
2022-10-16T20:46:41.732Z,6.50
2022-10-16T20:49:27.954Z,7.03
2022-10-16T20:51:56.704Z,6.07
2022-10-16T20:54:29.424Z,6.25
2022-10-16T20:57:01.432Z,6.22
2022-10-16T20:59:29.844Z,5.90
2022-10-16T21:01:59.919Z,6.03
2022-10-16T21:04:33.175Z,6.75
2022-10-16T21:07:02.218Z,6.35
2022-10-16T21:09:33.626Z,6.20
2022-10-16T21:12:01.644Z,6.32
2022-10-16T21:14:30.242Z,6.43
2022-10-16T21:17:01.663Z,6.60
2022-10-16T21:19:35.568Z,6.18
2022-10-16T21:22:03.624Z,6.50
2022-10-16T21:24:31.635Z,6.35
2022-10-16T21:26:59.682Z,6.68
2022-10-16T21:29:27.692Z,6.55
2022-10-16T21:31:55.519Z,6.03
2022-10-16T21:34:23.336Z,7.68
2022-10-16T21:36:52.444Z,6.07
2022-10-16T21:39:21.587Z,6.10
2022-10-16T21:41:51.242Z,6.20
2022-10-16T21:44:20.286Z,6.05
2022-10-16T21:46:49.076Z,6.88
2022-10-16T21:49:19.304Z,5.80
2022-10-16T21:51:52.877Z,5.90
2022-10-16T21:54:25.319Z,6.15
2022-10-16T21:56:53.698Z,5.65
2022-10-16T21:59:22.317Z,6.28
2022-10-16T22:01:50.447Z,5.85
2022-10-16T22:04:18.556Z,5.90
2022-10-16T22:06:46.360Z,5.72
2022-10-16T22:09:16.414Z,5.55
2022-10-16T22:11:46.141Z,5.88
2022-10-16T22:14:16.297Z,5.50
2022-10-16T22:16:45.374Z,5.55
2022-10-16T22:19:14.598Z,5.03
2022-10-16T22:21:43.603Z,5.05
2022-10-16T22:24:11.777Z,5.25
2022-10-16T22:26:43.776Z,5.13
2022-10-16T22:29:13.148Z,5.05
2022-10-16T22:31:41.439Z,5.43
2022-10-16T22:34:09.178Z,5.93
2022-10-16T22:36:36.799Z,5.50
2022-10-16T22:39:04.589Z,5.45
2022-10-16T22:41:32.577Z,5.80
2022-10-16T22:44:01.648Z,5.30
2022-10-16T22:46:31.064Z,5.18
2022-10-16T22:48:59.278Z,5.68
2022-10-16T22:51:28.340Z,5.10
2022-10-16T22:53:58.384Z,5.10
2022-10-16T22:56:26.254Z,4.57
2022-10-16T22:58:54.291Z,4.63
2022-10-16T23:01:26.807Z,4.38
2022-10-16T23:03:54.753Z,4.47
2022-10-16T23:06:22.898Z,4.38
2022-10-16T23:08:52.651Z,4.70
2022-10-16T23:11:20.611Z,4.55
2022-10-16T23:13:48.545Z,4.65
2022-10-16T23:16:18.531Z,4.85
2022-10-16T23:18:49.416Z,5.30
2022-10-16T23:21:19.042Z,4.72
2022-10-16T23:23:46.784Z,4.13
2022-10-16T23:26:16.435Z,4.68
2022-10-16T23:28:44.417Z,4.75
2022-10-16T23:31:13.665Z,4.53
2022-10-16T23:33:41.783Z,4.25
2022-10-16T23:36:13.571Z,4.47
2022-10-16T23:38:41.261Z,4.38
2022-10-16T23:41:09.259Z,4.25
2022-10-16T23:43:37.442Z,4.75
2022-10-16T23:46:05.935Z,4.35
2022-10-16T23:48:33.973Z,4.90
2022-10-16T23:51:01.696Z,5.07
2022-10-16T23:53:30.824Z,4.38
2022-10-16T23:55:58.465Z,4.88
2022-10-16T23:58:26.658Z,4.57
